Time;durP1;ratioP1;P1;durP2;ratioP2;P2;SDS_P1;SDS_P2;PMS_P1;PMS_P2;Temp;Humidity;BMP_temperature;BMP_pressure;BME280_temperature;BME280_humidity;BME280_pressure;Samples;Min_cycle;Max_cycle;Signal;HPM_P1;HPM_P2
2024/01/15 00:02:01;;;;;;;35.47;16.08;;;;;;;0.71;79.92;97089.25;4259496;27;20568;-85
2024/01/15 00:04:05;;;;;;;32.72;13.20;;;;;;;0.74;80.41;97091.66;4263590;27;20626;-85
2024/01/15 00:06:08;;;;;;;31.38;13.20;;;;;;;0.75;80.14;97089.91;4250707;27;20668;-84
2024/01/15 00:08:11;;;;;;;28.00;12.98;;;;;;;0.75;79.91;97087.34;4250044;27;20731;-85
2024/01/15 00:10:16;;;;;;;31.35;13.32;;;;;;;0.74;79.63;97088.28;4252084;27;20299;-84
2024/01/15 00:12:18;;;;;;;32.67;12.85;;;;;;;0.68;80.13;97086.00;4232253;27;20220;-85
2024/01/15 00:14:21;;;;;;;31.80;12.27;;;;;;;0.64;79.95;97075.03;4237066;27;20203;-85
2024/01/15 00:16:24;;;;;;;30.85;12.43;;;;;;;0.67;80.34;97074.88;4249863;27;20253;-83
2024/01/15 00:18:27;;;;;;;27.15;12.15;;;;;;;0.72;80.08;97072.97;4222751;27;20223;-85
2024/01/15 00:20:31;;;;;;;28.70;11.90;;;;;;;0.74;80.14;97060.88;4257455;27;20228;-83
2024/01/15 00:22:35;;;;;;;29.33;12.00;;;;;;;0.78;80.09;97066.69;4236861;27;20204;-85
2024/01/15 00:24:38;;;;;;;29.50;12.52;;;;;;;0.76;80.24;97073.63;4237854;27;20250;-86
2024/01/15 00:26:42;;;;;;;31.52;12.27;;;;;;;0.74;79.40;97070.31;4258349;27;20195;-85
2024/01/15 00:28:46;;;;;;;29.58;11.57;;;;;;;0.66;79.70;97065.53;4231828;27;20279;-85
2024/01/15 00:30:49;;;;;;;27.95;11.80;;;;;;;0.71;79.93;97062.78;4241768;27;20204;-83
2024/01/15 00:32:52;;;;;;;26.98;12.20;;;;;;;0.72;79.85;97056.72;4235450;27;20294;-84
2024/01/15 00:34:56;;;;;;;25.15;11.45;;;;;;;0.74;80.00;97055.75;4235120;27;20211;-84
2024/01/15 00:37:00;;;;;;;27.65;11.27;;;;;;;0.75;79.68;97061.69;4256899;27;20205;-85
2024/01/15 00:39:04;;;;;;;32.85;12.50;;;;;;;0.66;80.03;97057.00;4235657;27;20200;-84
2024/01/15 00:41:08;;;;;;;33.58;13.30;;;;;;;0.62;80.23;97051.19;4235487;27;20781;-84
2024/01/15 00:43:12;;;;;;;26.90;11.65;;;;;;;0.52;80.20;97049.94;4250179;27;20743;-84
2024/01/15 00:45:16;;;;;;;26.80;11.07;;;;;;;0.52;80.52;97057.63;4254834;27;20215;-85
2024/01/15 00:47:19;;;;;;;26.33;12.15;;;;;;;0.60;80.92;97058.13;4234231;27;20216;-84
2024/01/15 00:49:22;;;;;;;32.15;12.45;;;;;;;0.65;80.30;97056.19;4246210;27;20865;-85
2024/01/15 00:51:26;;;;;;;27.27;11.05;;;;;;;0.67;80.52;97050.97;4234588;27;20667;-86
2024/01/15 00:53:29;;;;;;;29.27;12.50;;;;;;;0.63;80.30;97049.44;4251767;27;20207;-84
2024/01/15 00:55:32;;;;;;;28.50;12.20;;;;;;;0.62;80.77;97047.81;4252262;27;20194;-84
2024/01/15 00:57:35;;;;;;;25.85;12.52;;;;;;;0.57;80.80;97050.59;4260859;27;20287;-84
2024/01/15 00:59:40;;;;;;;26.38;11.65;;;;;;;0.57;80.89;97048.00;4255347;27;20610;-84
2024/01/15 01:01:43;;;;;;;28.88;12.20;;;;;;;0.57;80.97;97053.16;4234864;27;20648;-80
2024/01/15 01:03:46;;;;;;;28.65;12.77;;;;;;;0.55;81.17;97049.81;4230384;27;20192;-81
2024/01/15 01:05:49;;;;;;;28.80;11.43;;;;;;;0.59;80.97;97046.19;4236612;27;20227;-80
2024/01/15 01:07:52;;;;;;;26.90;11.50;;;;;;;0.65;81.63;97043.34;4252677;27;20210;-80
2024/01/15 01:09:55;;;;;;;32.15;12.48;;;;;;;0.70;81.15;97041.41;4231008;27;20560;-80
2024/01/15 01:11:59;;;;;;;28.17;12.00;;;;;;;0.70;80.40;97033.69;4253492;27;20283;-79
2024/01/15 01:14:02;;;;;;;29.90;12.07;;;;;;;0.70;80.51;97033.69;4255795;27;20206;-79
2024/01/15 01:16:08;;;;;;;28.35;12.05;;;;;;;0.73;80.58;97038.69;4250460;27;20199;-79
2024/01/15 01:18:11;;;;;;;27.23;11.30;;;;;;;0.78;80.32;97030.78;4251387;27;20214;-79
2024/01/15 01:20:15;;;;;;;23.38;10.88;;;;;;;0.82;80.52;97035.69;4231758;27;20290;-80
2024/01/15 01:22:21;;;;;;;29.85;12.02;;;;;;;0.88;80.20;97032.03;4249638;27;20226;-80
2024/01/15 01:24:23;;;;;;;31.55;12.73;;;;;;;0.90;80.49;97035.31;4218672;27;20205;-80
2024/01/15 01:26:26;;;;;;;29.15;11.77;;;;;;;0.93;80.53;97033.44;4219349;27;20232;-80
2024/01/15 01:28:29;;;;;;;29.40;12.43;;;;;;;0.92;80.01;97029.22;4240192;27;20218;-80
2024/01/15 01:30:33;;;;;;;26.98;10.77;;;;;;;0.95;80.44;97031.66;4254191;27;20232;-81
2024/01/15 01:32:37;;;;;;;26.23;11.70;;;;;;;0.97;80.20;97028.09;4219277;27;20212;-81
2024/01/15 01:34:42;;;;;;;23.40;10.32;;;;;;;1.01;80.25;97039.06;4252368;27;20330;-80
2024/01/15 01:36:45;;;;;;;24.95;10.63;;;;;;;1.02;79.86;97038.13;4220040;27;20219;-82
2024/01/15 01:38:48;;;;;;;25.20;12.07;;;;;;;1.02;79.70;97031.28;4240772;27;20761;-80
2024/01/15 01:40:51;;;;;;;28.35;11.90;;;;;;;1.05;80.13;97040.56;4238810;27;20212;-80
2024/01/15 01:42:54;;;;;;;27.60;11.82;;;;;;;1.07;79.71;97033.63;4224073;27;20200;-80
2024/01/15 01:44:58;;;;;;;25.08;11.10;;;;;;;1.09;79.52;97031.81;4250783;27;20675;-80
2024/01/15 01:47:00;;;;;;;32.40;13.10;;;;;;;1.08;79.85;97031.00;4232007;27;20242;-80
2024/01/15 01:49:06;;;;;;;24.15;11.10;;;;;;;1.09;80.23;97022.38;4246281;27;20196;-80
2024/01/15 01:51:09;;;;;;;25.83;11.82;;;;;;;1.12;80.42;97018.84;4235358;27;20203;-80
2024/01/15 01:53:12;;;;;;;26.20;11.65;;;;;;;1.11;80.20;97019.72;4234505;27;20207;-81
2024/01/15 01:55:15;;;;;;;24.63;11.07;;;;;;;1.13;80.51;97033.34;4222082;28;20309;-80
2024/01/15 01:57:19;;;;;;;26.83;11.05;;;;;;;1.14;80.50;97029.84;4253440;27;20198;-80
2024/01/15 01:59:23;;;;;;;22.25;10.30;;;;;;;1.16;80.83;97034.00;4218159;27;20212;-80
2024/01/15 02:01:27;;;;;;;23.40;10.00;;;;;;;1.19;80.73;97039.00;4252741;27;20225;-80
2024/01/15 02:03:31;;;;;;;25.90;11.35;;;;;;;1.22;80.67;97030.28;4256501;27;20268;-79
2024/01/15 02:05:36;;;;;;;27.13;10.50;;;;;;;1.19;81.12;97035.56;4241684;27;20314;-80
2024/01/15 02:07:39;;;;;;;26.88;11.38;;;;;;;1.21;80.75;97037.16;4254549;27;20256;-81
2024/01/15 02:09:42;;;;;;;24.83;10.80;;;;;;;1.25;80.40;97045.53;4238341;27;20303;-81
2024/01/15 02:11:47;;;;;;;20.05;9.95;;;;;;;1.25;80.67;97041.25;4257441;27;20218;-85
2024/01/15 02:13:50;;;;;;;24.73;10.68;;;;;;;1.24;81.00;97031.06;4233543;27;20699;-83
2024/01/15 02:15:53;;;;;;;27.70;11.35;;;;;;;1.23;80.57;97031.97;4235794;27;20287;-85
2024/01/15 02:18:01;;;;;;;22.55;11.25;;;;;;;1.21;80.44;97031.22;4252872;27;20223;-85
2024/01/15 02:20:05;;;;;;;22.25;10.57;;;;;;;1.16;80.86;97025.50;4254117;27;20726;-84
2024/01/15 02:22:10;;;;;;;24.67;10.20;;;;;;;1.22;80.55;97028.56;4253847;27;20747;-85
2024/01/15 02:24:14;;;;;;;26.13;12.35;;;;;;;1.23;81.19;97024.25;4255376;27;20210;-85
2024/01/15 02:26:17;;;;;;;25.30;10.25;;;;;;;1.27;80.62;97024.03;4220465;28;21561;-85
2024/01/15 02:28:21;;;;;;;25.90;11.52;;;;;;;1.31;80.97;97030.69;4237871;27;20680;-84
2024/01/15 02:30:25;;;;;;;26.25;11.20;;;;;;;1.35;81.04;97028.78;4216576;28;20216;-85
2024/01/15 02:32:28;;;;;;;26.88;10.45;;;;;;;1.38;80.47;97028.66;4256602;27;20239;-85
2024/01/15 02:34:32;;;;;;;22.63;10.82;;;;;;;1.40;80.18;97033.63;4232744;27;20227;-85
2024/01/15 02:36:36;;;;;;;23.08;10.65;;;;;;;1.43;80.22;97028.34;4250495;27;20233;-85
2024/01/15 02:38:39;;;;;;;25.95;11.55;;;;;;;1.43;80.18;97028.34;4254763;27;20501;-84
2024/01/15 02:40:44;;;;;;;27.30;12.05;;;;;;;1.41;80.03;97030.16;4255082;27;20293;-85
2024/01/15 02:42:47;;;;;;;24.25;11.20;;;;;;;1.41;80.68;97030.16;4256580;27;20199;-84
2024/01/15 02:44:50;;;;;;;26.80;10.68;;;;;;;1.43;81.27;97033.47;4231882;27;20204;-85
2024/01/15 02:46:53;;;;;;;24.63;9.73;;;;;;;1.41;81.56;97024.19;4257008;27;20221;-84
2024/01/15 02:48:56;;;;;;;26.30;11.52;;;;;;;1.40;81.28;97028.50;4247214;27;20251;-84
2024/01/15 02:50:59;;;;;;;22.90;10.93;;;;;;;1.39;81.05;97026.00;4252979;27;20580;-84
2024/01/15 02:53:03;;;;;;;28.30;11.80;;;;;;;1.39;81.25;97020.03;4237977;27;20192;-85
2024/01/15 02:55:06;;;;;;;26.33;11.50;;;;;;;1.40;81.56;97022.53;4249282;27;20210;-84
2024/01/15 02:57:10;;;;;;;24.60;11.45;;;;;;;1.40;81.08;97020.78;4235530;27;20213;-85
2024/01/15 02:59:13;;;;;;;26.33;11.30;;;;;;;1.40;81.87;97017.41;4214146;28;20212;-85
2024/01/15 03:01:19;;;;;;;25.95;11.38;;;;;;;1.39;81.22;97016.56;4237588;27;20207;-85
2024/01/15 03:03:23;;;;;;;24.17;10.30;;;;;;;1.40;81.62;97022.53;4241035;27;20261;-85
2024/01/15 03:05:26;;;;;;;25.23;11.38;;;;;;;1.41;81.39;97016.47;4240101;27;20238;-84
2024/01/15 03:07:28;;;;;;;29.58;12.32;;;;;;;1.42;81.29;97016.41;4243427;27;20227;-85
2024/01/15 03:09:31;;;;;;;23.60;10.95;;;;;;;1.42;81.26;97023.28;4251041;27;20262;-84
2024/01/15 03:11:38;;;;;;;28.30;11.52;;;;;;;1.42;81.06;97015.56;4235901;27;20204;-85
2024/01/15 03:13:42;;;;;;;23.77;10.68;;;;;;;1.39;80.77;97010.59;4259293;27;20294;-83
2024/01/15 03:15:45;;;;;;;26.90;11.70;;;;;;;1.41;81.43;97011.34;4252009;27;20225;-84
2024/01/15 03:17:49;;;;;;;26.75;11.50;;;;;;;1.43;81.71;97012.94;4239325;27;20744;-84
2024/01/15 03:19:52;;;;;;;23.73;11.15;;;;;;;1.47;81.68;97017.03;4237331;27;20206;-85
2024/01/15 03:21:55;;;;;;;28.45;11.15;;;;;;;1.49;81.33;97012.63;4231612;27;20222;-85
2024/01/15 03:23:59;;;;;;;27.58;12.55;;;;;;;1.51;80.58;97015.94;4258191;27;20608;-85
2024/01/15 03:26:01;;;;;;;23.80;10.35;;;;;;;1.52;81.12;97009.91;4262008;27;20234;-84
2024/01/15 03:28:04;;;;;;;23.20;10.23;;;;;;;1.52;81.10;97009.91;4223214;27;20205;-84
2024/01/15 03:30:10;;;;;;;26.45;11.82;;;;;;;1.51;80.70;97005.66;4258754;27;20207;-85
2024/01/15 03:32:12;;;;;;;25.00;11.00;;;;;;;1.50;81.80;97008.31;4257530;27;20210;-85
2024/01/15 03:34:16;;;;;;;25.83;11.27;;;;;;;1.49;81.48;97006.66;4256146;27;20669;-85
2024/01/15 03:36:19;;;;;;;22.85;10.88;;;;;;;1.51;81.64;96997.13;4220640;28;20248;-84
2024/01/15 03:38:23;;;;;;;24.35;11.10;;;;;;;1.49;81.72;97007.50;4237165;27;20593;-84
2024/01/15 03:40:26;;;;;;;26.48;12.02;;;;;;;1.48;81.67;97002.44;4217991;27;20205;-84
2024/01/15 03:42:30;;;;;;;25.60;11.93;;;;;;;1.46;81.63;96997.38;4254768;27;20234;-84
2024/01/15 03:44:33;;;;;;;23.20;11.52;;;;;;;1.48;81.57;96998.13;4253816;27;20199;-85
2024/01/15 03:46:37;;;;;;;23.27;11.20;;;;;;;1.50;80.71;97004.03;4237120;27;20562;-84
2024/01/15 03:48:40;;;;;;;26.25;11.15;;;;;;;1.51;81.54;96997.97;4240796;27;20210;-84
2024/01/15 03:50:43;;;;;;;24.85;10.05;;;;;;;1.51;81.71;97003.09;4231380;27;20213;-85
2024/01/15 03:52:46;;;;;;;22.75;11.18;;;;;;;1.53;81.42;97001.31;4244515;27;20235;-85
2024/01/15 03:54:49;;;;;;;25.13;11.40;;;;;;;1.53;81.22;96995.31;4260519;27;20543;-84
2024/01/15 03:56:51;;;;;;;22.90;10.70;;;;;;;1.54;81.46;97005.50;4254790;27;20207;-84
2024/01/15 03:58:54;;;;;;;28.65;11.50;;;;;;;1.55;81.83;96996.09;4249660;27;20214;-85
2024/01/15 04:00:57;;;;;;;23.33;10.57;;;;;;;1.56;81.54;96988.28;4238782;27;20191;-83
2024/01/15 04:03:02;;;;;;;25.60;11.38;;;;;;;1.55;81.16;96986.63;4257108;27;20206;-83
2024/01/15 04:05:06;;;;;;;23.38;10.00;;;;;;;1.56;81.70;96980.56;4234535;27;20300;-84
2024/01/15 04:07:08;;;;;;;23.85;11.02;;;;;;;1.57;81.41;96982.25;4250573;27;20225;-84
2024/01/15 04:09:13;;;;;;;26.60;10.50;;;;;;;1.57;81.90;96984.00;4225439;27;20207;-85
2024/01/15 04:11:16;;;;;;;23.77;10.75;;;;;;;1.56;81.20;96978.00;4234466;27;20865;-85
2024/01/15 04:13:19;;;;;;;28.50;11.77;;;;;;;1.56;81.38;96972.88;4221898;27;20204;-84
2024/01/15 04:15:22;;;;;;;25.10;10.93;;;;;;;1.58;80.84;96973.63;4232686;27;20195;-85
2024/01/15 04:17:26;;;;;;;26.58;12.02;;;;;;;1.59;80.33;96967.56;4239999;27;20268;-85
2024/01/15 04:19:30;;;;;;;22.48;9.82;;;;;;;1.60;81.07;96971.81;4235829;27;20222;-85
2024/01/15 04:21:33;;;;;;;25.25;10.65;;;;;;;1.60;80.66;96969.25;4239071;27;20273;-85
2024/01/15 04:23:36;;;;;;;26.08;11.30;;;;;;;1.61;79.97;96965.78;4252882;27;20692;-84
2024/01/15 04:25:42;;;;;;;22.35;10.73;;;;;;;1.60;80.42;96958.97;4242950;27;20239;-85
2024/01/15 04:27:45;;;;;;;20.88;10.05;;;;;;;1.59;80.30;96959.03;4236791;27;20251;-85
2024/01/15 04:29:49;;;;;;;21.73;10.63;;;;;;;1.57;80.58;96956.56;4237336;27;20204;-85
2024/01/15 04:31:53;;;;;;;21.15;9.82;;;;;;;1.57;81.33;96958.31;4243813;27;20744;-85
2024/01/15 04:33:56;;;;;;;21.08;9.82;;;;;;;1.59;81.42;96957.28;4257395;27;20206;-85
2024/01/15 04:36:04;;;;;;;20.58;9.77;;;;;;;1.64;81.47;96952.78;4235301;27;20203;-85
2024/01/15 04:38:07;;;;;;;27.70;11.55;;;;;;;1.62;81.17;96952.00;4234883;27;20207;-85
2024/01/15 04:40:11;;;;;;;29.40;11.02;;;;;;;1.61;80.96;96952.94;4238219;27;20207;-85
2024/01/15 04:42:13;;;;;;;22.38;11.30;;;;;;;1.59;81.82;96956.47;4252226;27;20207;-85
2024/01/15 04:44:18;;;;;;;23.63;11.02;;;;;;;1.56;82.07;96952.31;4256264;27;20266;-85
2024/01/15 04:46:21;;;;;;;25.60;11.32;;;;;;;1.58;81.72;96958.22;4237869;27;20213;-84
2024/01/15 04:48:24;;;;;;;21.90;9.85;;;;;;;1.61;82.39;96958.06;4258229;27;20250;-85
2024/01/15 04:50:28;;;;;;;24.10;11.25;;;;;;;1.58;82.56;96960.78;4264238;27;20207;-84
2024/01/15 04:52:32;;;;;;;18.98;9.68;;;;;;;1.57;82.48;96969.41;4255870;27;20623;-85
2024/01/15 04:54:35;;;;;;;21.00;9.65;;;;;;;1.57;81.80;96971.16;4234812;27;20235;-85
2024/01/15 04:56:39;;;;;;;23.63;10.32;;;;;;;1.59;81.96;96975.28;4242699;27;20329;-85
2024/01/15 04:58:42;;;;;;;25.13;10.25;;;;;;;1.63;81.02;96970.84;4255490;27;20210;-84
2024/01/15 05:00:45;;;;;;;24.73;10.63;;;;;;;1.66;81.61;96962.97;4234383;27;20203;-85
2024/01/15 05:02:48;;;;;;;21.92;9.63;;;;;;;1.67;81.77;96965.47;4250537;27;20207;-83
2024/01/15 05:04:51;;;;;;;23.23;10.48;;;;;;;1.68;81.80;96961.97;4234751;27;20257;-85
2024/01/15 05:06:54;;;;;;;21.38;9.40;;;;;;;1.70;82.18;96964.44;4261636;27;20211;-85
2024/01/15 05:08:59;;;;;;;19.75;9.88;;;;;;;1.70;82.03;96964.44;4235704;27;20266;-85
2024/01/15 05:11:02;;;;;;;21.23;9.85;;;;;;;1.73;81.89;96967.72;4220308;27;20295;-85
2024/01/15 05:13:04;;;;;;;22.90;10.32;;;;;;;1.74;81.57;96951.38;4241957;27;20207;-84
2024/01/15 05:15:09;;;;;;;21.75;9.32;;;;;;;1.78;81.62;96955.44;4251718;27;20234;-85
2024/01/15 05:17:12;;;;;;;24.80;10.77;;;;;;;1.80;82.05;96960.50;4243913;27;20196;-84
2024/01/15 05:19:16;;;;;;;18.20;9.18;;;;;;;1.83;82.24;96961.16;4254838;27;21045;-85
2024/01/15 05:21:19;;;;;;;23.23;9.98;;;;;;;1.87;81.39;96959.28;4236218;27;20251;-85
2024/01/15 05:23:22;;;;;;;21.23;9.30;;;;;;;1.85;81.59;96954.22;4235559;27;20253;-84
2024/01/15 05:25:27;;;;;;;19.27;8.38;;;;;;;1.87;81.49;96952.41;4240093;27;20215;-85
2024/01/15 05:27:30;;;;;;;18.85;8.77;;;;;;;1.88;81.56;96954.88;4237761;27;20286;-85
2024/01/15 05:29:33;;;;;;;17.77;8.40;;;;;;;1.88;81.33;96956.63;4258780;27;20213;-85
2024/01/15 05:31:37;;;;;;;22.15;10.23;;;;;;;1.86;82.00;96957.63;4220110;27;20610;-85
2024/01/15 05:33:40;;;;;;;18.13;9.43;;;;;;;1.86;81.85;96948.16;4257077;27;20207;-85
2024/01/15 05:35:44;;;;;;;20.95;10.38;;;;;;;1.85;81.11;96951.66;4218049;27;20756;-85
2024/01/15 05:37:47;;;;;;;21.45;9.88;;;;;;;1.85;81.59;96946.53;4237039;27;20256;-85
2024/01/15 05:39:49;;;;;;;19.58;9.60;;;;;;;1.85;81.37;96953.38;4256839;27;20210;-85
2024/01/15 05:41:54;;;;;;;20.98;9.65;;;;;;;1.81;82.20;96951.91;4259055;27;20202;-86
2024/01/15 05:43:57;;;;;;;22.05;9.95;;;;;;;1.80;81.96;96945.09;4233407;27;20211;-84
2024/01/15 05:45:59;;;;;;;21.85;10.40;;;;;;;1.81;82.08;96950.16;4252730;27;20668;-85
2024/01/15 05:48:02;;;;;;;22.60;9.50;;;;;;;1.84;82.10;96946.59;4234605;27;20615;-85
2024/01/15 05:50:06;;;;;;;22.75;9.90;;;;;;;1.84;82.41;96944.84;4222591;27;20231;-85
2024/01/15 05:52:09;;;;;;;23.38;10.88;;;;;;;1.87;82.28;96950.66;4235891;27;20211;-84
2024/01/15 05:54:12;;;;;;;20.02;10.48;;;;;;;1.84;82.12;96937.16;4251317;27;20393;-85
2024/01/15 05:56:15;;;;;;;21.10;9.52;;;;;;;1.79;82.34;96949.41;4253156;27;20206;-84
2024/01/15 05:58:19;;;;;;;25.15;10.68;;;;;;;1.80;81.73;96943.34;4235407;27;20867;-85
2024/01/15 06:00:22;;;;;;;24.10;10.77;;;;;;;1.79;81.87;96928.84;4231900;27;20216;-85
2024/01/15 06:02:25;;;;;;;19.27;10.30;;;;;;;1.79;82.44;96939.13;4233284;27;20207;-84
2024/01/15 06:04:28;;;;;;;23.02;11.05;;;;;;;1.80;82.02;96929.69;4235985;27;20222;-85
2024/01/15 06:06:31;;;;;;;20.17;10.30;;;;;;;1.77;81.83;96930.66;4234363;27;20208;-85
2024/01/15 06:08:34;;;;;;;24.77;11.50;;;;;;;1.76;81.96;96930.75;4252824;27;20641;-85
2024/01/15 06:10:38;;;;;;;30.38;16.00;;;;;;;1.79;81.94;96931.44;4235301;27;20204;-85
2024/01/15 06:12:41;;;;;;;23.40;10.95;;;;;;;1.78;81.37;96932.31;4252588;27;20202;-85
2024/01/15 06:14:45;;;;;;;25.25;13.70;;;;;;;1.77;81.74;96938.38;4234411;27;20618;-84
2024/01/15 06:16:47;;;;;;;28.48;13.85;;;;;;;1.77;81.12;96929.84;4235398;27;20788;-85
2024/01/15 06:18:51;;;;;;;35.17;18.13;;;;;;;1.75;81.65;96926.53;4232346;27;20657;-85
2024/01/15 06:20:54;;;;;;;27.17;11.75;;;;;;;1.76;81.27;96933.31;4233683;27;20648;-85
2024/01/15 06:22:57;;;;;;;22.50;11.15;;;;;;;1.77;81.38;96929.84;4231431;27;20744;-86
2024/01/15 06:25:00;;;;;;;19.83;10.02;;;;;;;1.82;81.30;96923.56;4216673;28;20214;-85
2024/01/15 06:27:03;;;;;;;21.98;9.85;;;;;;;1.84;82.14;96931.19;4251476;27;20725;-85
2024/01/15 06:29:07;;;;;;;18.25;8.75;;;;;;;1.85;82.12;96922.53;4234897;27;20710;-85
2024/01/15 06:31:13;;;;;;;20.52;9.57;;;;;;;1.87;82.53;96925.88;4215840;28;20269;-85
2024/01/15 06:33:16;;;;;;;18.10;9.23;;;;;;;1.89;82.05;96924.88;4234724;27;20298;-85
2024/01/15 06:35:19;;;;;;;19.23;8.80;;;;;;;1.93;81.94;96918.66;4249007;27;20255;-86
2024/01/15 06:37:25;;;;;;;15.30;7.97;;;;;;;1.97;81.65;96920.13;4233991;27;20206;-84
2024/01/15 06:39:28;;;;;;;19.95;9.40;;;;;;;2.00;81.53;96912.28;4224921;28;20227;-85
2024/01/15 06:41:31;;;;;;;17.90;8.75;;;;;;;2.03;81.36;96920.66;4217629;28;20204;-85
2024/01/15 06:43:35;;;;;;;18.02;9.45;;;;;;;2.06;81.05;96919.66;4218665;27;20242;-85
2024/01/15 06:45:38;;;;;;;20.48;9.40;;;;;;;2.08;81.35;96916.09;4252125;27;20195;-84
2024/01/15 06:47:42;;;;;;;20.95;11.32;;;;;;;2.09;80.97;96922.91;4235418;27;20212;-86
2024/01/15 06:49:45;;;;;;;17.83;10.20;;;;;;;2.07;81.00;96919.56;4245787;27;20279;-85
2024/01/15 06:51:49;;;;;;;24.92;12.63;;;;;;;2.09;81.45;96916.91;4238664;27;20203;-80
2024/01/15 06:53:52;;;;;;;18.30;9.23;;;;;;;2.11;81.62;96915.13;4257146;27;20202;-80
2024/01/15 06:55:55;;;;;;;21.33;10.20;;;;;;;2.08;81.79;96910.97;4239232;27;20230;-80
2024/01/15 06:57:58;;;;;;;21.00;9.45;;;;;;;2.06;82.20;96911.94;4241480;27;21037;-82
2024/01/15 07:00:04;;;;;;;17.52;9.05;;;;;;;2.05;82.03;96923.16;4237325;27;20199;-80
2024/01/15 07:02:08;;;;;;;16.63;9.02;;;;;;;2.04;81.90;96924.88;4259600;27;20245;-80
2024/01/15 07:04:13;;;;;;;19.27;9.85;;;;;;;2.04;82.00;96918.91;4257271;27;20245;-81
2024/01/15 07:06:16;;;;;;;23.10;10.48;;;;;;;2.05;82.18;96926.53;4256958;27;20198;-80
2024/01/15 07:08:20;;;;;;;20.67;10.10;;;;;;;2.06;82.13;96923.06;4235701;27;20214;-82
2024/01/15 07:10:23;;;;;;;18.50;9.27;;;;;;;2.07;82.12;96916.19;4240409;27;20214;-80
2024/01/15 07:12:26;;;;;;;18.52;9.23;;;;;;;2.08;82.27;96917.84;4227031;27;20652;-80
2024/01/15 07:14:29;;;;;;;17.20;8.70;;;;;;;2.08;82.29;96910.13;4242496;27;20235;-80
2024/01/15 07:16:32;;;;;;;18.42;9.10;;;;;;;2.10;82.14;96909.13;4239481;27;20650;-81
2024/01/15 07:18:40;;;;;;;20.33;9.38;;;;;;;2.13;82.35;96915.84;4234138;27;20286;-80
2024/01/15 07:20:45;;;;;;;19.15;9.57;;;;;;;2.16;82.05;96923.41;4220689;27;20959;-80
2024/01/15 07:22:47;;;;;;;16.98;8.48;;;;;;;2.18;82.29;96919.00;4224110;27;20288;-79
2024/01/15 07:24:50;;;;;;;18.25;8.68;;;;;;;2.19;81.85;96915.50;4241976;27;20305;-82
2024/01/15 07:26:53;;;;;;;17.20;8.43;;;;;;;2.20;81.75;96909.47;4263209;27;20190;-80
2024/01/15 07:28:56;;;;;;;19.08;9.02;;;;;;;2.21;81.66;96913.69;4221241;28;20299;-79
2024/01/15 07:31:01;;;;;;;17.05;8.25;;;;;;;2.23;81.58;96915.25;4240758;27;20202;-81
2024/01/15 07:33:05;;;;;;;19.08;10.40;;;;;;;2.22;81.69;96911.03;4258854;27;20604;-80
2024/01/15 07:35:08;;;;;;;25.70;11.00;;;;;;;2.22;81.89;96923.06;4236825;27;20228;-80
2024/01/15 07:37:13;;;;;;;21.38;9.77;;;;;;;2.21;81.57;96918.81;4252317;27;20231;-81
2024/01/15 07:39:16;;;;;;;17.02;9.23;;;;;;;2.20;81.63;96927.47;4232125;27;20305;-79
2024/01/15 07:41:19;;;;;;;41.40;19.73;;;;;;;2.24;81.71;96928.94;4235710;27;20656;-80
2024/01/15 07:43:22;;;;;;;48.25;20.83;;;;;;;2.25;81.95;96928.03;4232742;27;20215;-81
2024/01/15 07:45:25;;;;;;;35.42;16.40;;;;;;;2.26;81.69;96934.84;4220803;27;20203;-80
2024/01/15 07:47:29;;;;;;;63.97;32.70;;;;;;;2.26;81.66;96924.56;4220946;27;20227;-80
2024/01/15 07:49:32;;;;;;;26.80;14.10;;;;;;;2.27;81.96;96927.06;4233334;27;20997;-81
2024/01/15 07:51:35;;;;;;;40.78;18.77;;;;;;;2.26;81.72;96930.53;4253923;27;20326;-80
2024/01/15 07:53:39;;;;;;;27.08;14.27;;;;;;;2.26;81.41;96932.28;4219201;27;20204;-80
2024/01/15 07:55:43;;;;;;;20.58;11.88;;;;;;;2.29;81.71;96932.13;4229328;27;20192;-81
2024/01/15 07:57:45;;;;;;;20.27;9.27;;;;;;;2.30;81.64;96934.59;4232414;27;20676;-81
2024/01/15 08:00:01;;;;;;;19.35;9.85;;;;;;;2.32;81.51;96931.94;4251368;27;20191;-81
2024/01/15 08:02:06;;;;;;;20.67;10.60;;;;;;;2.33;81.85;96934.44;4236194;27;20297;-86
2024/01/15 08:04:12;;;;;;;19.90;10.30;;;;;;;2.36;81.93;96937.66;4235810;27;20215;-83
2024/01/15 08:06:16;;;;;;;29.80;16.23;;;;;;;2.40;82.32;96933.16;4232615;27;20244;-84
2024/01/15 08:08:18;;;;;;;22.67;10.02;;;;;;;2.41;82.56;96930.50;4221878;27;20239;-84
2024/01/15 08:10:23;;;;;;;20.15;10.30;;;;;;;2.41;82.48;96919.41;4242267;27;20314;-85
2024/01/15 08:12:26;;;;;;;20.05;10.93;;;;;;;2.42;82.44;96932.19;4255202;27;20574;-85
2024/01/15 08:14:30;;;;;;;25.92;11.07;;;;;;;2.43;82.03;96922.72;4258161;27;20206;-85
2024/01/15 08:16:33;;;;;;;23.90;11.73;;;;;;;2.44;82.21;96922.63;4259632;27;20258;-85
2024/01/15 08:18:36;;;;;;;21.52;11.75;;;;;;;2.46;82.51;96919.97;4222187;27;20207;-85
2024/01/15 08:20:41;;;;;;;22.60;12.02;;;;;;;2.47;83.14;96925.03;4255389;27;20287;-84
2024/01/15 08:22:43;;;;;;;21.38;11.15;;;;;;;2.48;82.78;96921.56;4255075;27;20203;-84
2024/01/15 08:24:46;;;;;;;21.98;11.30;;;;;;;2.49;82.98;96923.19;4229190;27;20654;-84
2024/01/15 08:26:51;;;;;;;26.65;12.43;;;;;;;2.48;82.52;96915.56;4251967;27;20223;-85
2024/01/15 08:28:54;;;;;;;21.73;12.02;;;;;;;2.50;82.99;96924.03;4226039;27;20690;-84
2024/01/15 08:30:57;;;;;;;22.25;11.68;;;;;;;2.54;81.92;96922.94;4240438;27;20223;-85
2024/01/15 08:33:01;;;;;;;24.65;12.77;;;;;;;2.55;81.98;96922.03;4253247;27;20206;-83
2024/01/15 08:35:14;;;;;;;26.08;13.50;;;;;;;2.58;82.01;96924.44;4244439;27;20286;-85
2024/01/15 08:37:17;;;;;;;25.55;14.15;;;;;;;2.59;82.67;96929.50;4238936;27;20211;-86
2024/01/15 08:39:20;;;;;;;26.40;15.25;;;;;;;2.58;82.38;96917.53;4257852;27;20696;-83
2024/01/15 08:41:24;;;;;;;24.98;12.98;;;;;;;2.61;82.24;96925.09;4220408;27;20702;-85
2024/01/15 08:43:28;;;;;;;20.30;11.20;;;;;;;2.66;82.46;96930.81;4257762;27;20293;-83
2024/01/15 08:45:32;;;;;;;25.73;12.45;;;;;;;2.68;81.83;96928.16;4238907;27;20290;-84
2024/01/15 08:47:35;;;;;;;20.35;11.18;;;;;;;2.70;82.13;96932.28;4256137;27;20194;-85
2024/01/15 08:49:40;;;;;;;21.25;11.85;;;;;;;2.72;81.79;96924.47;4237043;27;20210;-84
2024/01/15 08:51:43;;;;;;;23.80;11.38;;;;;;;2.73;82.26;96916.69;4231348;27;20716;-84
2024/01/15 08:53:47;;;;;;;22.08;11.30;;;;;;;2.74;82.61;96927.78;4219406;27;20669;-84
2024/01/15 08:55:50;;;;;;;24.10;11.95;;;;;;;2.72;82.87;96927.91;4234327;27;20703;-84
2024/01/15 08:57:53;;;;;;;20.08;10.38;;;;;;;2.73;82.98;96929.53;4215298;27;20241;-84
2024/01/15 08:59:59;;;;;;;26.73;12.57;;;;;;;2.75;83.07;96927.69;4248595;27;20195;-84
2024/01/15 09:02:02;;;;;;;21.42;11.15;;;;;;;2.78;83.13;96927.53;4221525;27;20204;-84
2024/01/15 09:04:05;;;;;;;22.92;12.80;;;;;;;2.79;83.80;96931.78;4234058;27;20265;-84
2024/01/15 09:06:09;;;;;;;23.60;12.50;;;;;;;2.80;83.38;96918.00;4253888;27;20207;-83
2024/01/15 09:08:12;;;;;;;21.85;11.23;;;;;;;2.79;83.50;96924.88;4239177;27;21454;-84
2024/01/15 09:10:16;;;;;;;23.80;11.30;;;;;;;2.81;83.06;96930.78;4233485;27;20258;-84
2024/01/15 09:12:20;;;;;;;25.60;10.95;;;;;;;2.84;83.32;96932.31;4252096;27;20193;-81
2024/01/15 09:14:24;;;;;;;21.45;10.90;;;;;;;2.88;83.59;96920.94;4236313;27;20333;-80
2024/01/15 09:16:40;;;;;;;21.60;12.70;;;;;;;2.91;83.18;96923.34;4233310;27;20247;-79
2024/01/15 09:18:43;;;;;;;19.85;10.48;;;;;;;2.93;83.30;96916.38;4253070;27;20198;-81
2024/01/15 09:20:46;;;;;;;19.85;10.50;;;;;;;2.96;83.53;96916.19;4239774;27;20249;-80
2024/01/15 09:22:48;;;;;;;19.10;10.50;;;;;;;2.96;82.97;96909.31;4225689;27;20287;-80
2024/01/15 09:24:52;;;;;;;19.63;10.35;;;;;;;3.01;83.15;96916.78;4254574;27;20673;-80
2024/01/15 09:26:55;;;;;;;20.73;10.00;;;;;;;3.05;83.13;96915.66;4228122;27;20656;-80
2024/01/15 09:28:58;;;;;;;18.92;10.18;;;;;;;3.08;82.81;96918.06;4222601;28;20214;-78
2024/01/15 09:31:02;;;;;;;22.45;11.13;;;;;;;3.12;82.69;96924.69;4234677;27;20215;-80
2024/01/15 09:33:06;;;;;;;21.00;10.82;;;;;;;3.14;83.28;96921.09;4229005;27;20245;-80
2024/01/15 09:35:10;;;;;;;26.45;13.70;;;;;;;3.17;82.99;96907.22;4249585;27;20656;-80
2024/01/15 09:37:14;;;;;;;22.30;11.60;;;;;;;3.20;83.23;96909.63;4231092;27;20227;-81